createdAt,value
2017-11-19T06:23:39.795Z,5.40
2017-11-19T06:26:11.665Z,5.40
2017-11-19T06:28:43.555Z,5.40
2017-11-19T06:31:15.422Z,5.50
2017-11-19T06:33:47.310Z,5.50
2017-11-19T06:36:19.937Z,5.60
2017-11-19T06:38:51.823Z,5.60
2017-11-19T06:41:23.693Z,5.60
2017-11-19T06:43:55.604Z,5.70
2017-11-19T06:46:27.469Z,5.70
2017-11-19T06:48:59.372Z,5.80
2017-11-19T06:51:31.236Z,5.80
2017-11-19T06:54:03.137Z,5.80
2017-11-19T06:56:35.008Z,5.90
2017-11-19T06:59:06.900Z,5.90
2017-11-19T07:01:39.620Z,5.90
2017-11-19T07:04:12.288Z,5.90
2017-11-19T07:06:44.912Z,5.90
2017-11-19T07:09:16.818Z,6.00
2017-11-19T07:11:48.702Z,5.90
2017-11-19T07:14:21.383Z,5.90
2017-11-19T07:16:54.013Z,5.90
2017-11-19T07:19:25.904Z,5.90
2017-11-19T07:21:58.546Z,5.90
2017-11-19T07:24:30.449Z,5.90
2017-11-19T07:27:03.089Z,6.00
2017-11-19T07:29:35.757Z,5.90
2017-11-19T07:32:07.628Z,5.90
2017-11-19T07:34:39.537Z,6.00
2017-11-19T07:37:11.397Z,6.00
2017-11-19T07:39:43.286Z,6.00
2017-11-19T07:42:15.157Z,6.00
2017-11-19T07:44:47.081Z,6.00
2017-11-19T07:47:19.708Z,6.00
2017-11-19T07:49:51.589Z,6.00
2017-11-19T07:52:23.463Z,6.00
2017-11-19T07:54:56.113Z,6.10
2017-11-19T07:57:27.973Z,6.10
2017-11-19T07:59:59.893Z,6.20
2017-11-19T08:02:31.803Z,6.20
2017-11-19T08:05:03.714Z,6.20
2017-11-19T08:07:35.602Z,6.30
2017-11-19T08:10:07.503Z,6.30
2017-11-19T08:12:40.149Z,6.20
2017-11-19T08:15:12.062Z,6.20
2017-11-19T08:17:43.933Z,6.20
2017-11-19T08:20:15.829Z,6.30
2017-11-19T08:22:47.706Z,6.30
2017-11-19T08:25:19.617Z,6.30
2017-11-19T08:27:51.487Z,6.50
2017-11-19T08:30:23.390Z,6.50
2017-11-19T08:32:55.262Z,6.60
2017-11-19T08:35:27.935Z,6.80
2017-11-19T08:38:00.569Z,6.80
2017-11-19T08:40:33.237Z,6.80
2017-11-19T08:43:05.135Z,6.80
2017-11-19T08:45:37.005Z,6.90
2017-11-19T08:48:09.645Z,6.70
2017-11-19T08:50:41.682Z,6.70
2017-11-19T08:53:13.564Z,6.60
2017-11-19T08:55:45.449Z,6.60
2017-11-19T08:58:17.317Z,6.50
2017-11-19T09:00:49.225Z,6.50
2017-11-19T09:03:21.377Z,6.50
2017-11-19T09:05:53.281Z,6.50
2017-11-19T09:08:25.149Z,6.50
2017-11-19T09:10:57.059Z,6.50
2017-11-19T09:13:28.924Z,6.50
2017-11-19T09:16:00.805Z,6.50
2017-11-19T09:18:32.681Z,6.50
2017-11-19T09:21:04.585Z,6.60
2017-11-19T09:23:37.213Z,6.70
2017-11-19T09:26:09.113Z,6.70
2017-11-19T09:28:40.976Z,6.80
2017-11-19T09:31:13.648Z,6.90
2017-11-19T09:33:45.513Z,6.90
2017-11-19T09:36:18.173Z,7.00
2017-11-19T09:38:50.058Z,7.00
2017-11-19T09:41:22.729Z,7.00
2017-11-19T09:43:55.365Z,7.00
2017-11-19T09:46:27.311Z,7.00
2017-11-19T09:48:59.181Z,7.00
2017-11-19T09:51:31.094Z,7.10
2017-11-19T09:54:03.729Z,7.20
2017-11-19T09:56:35.612Z,7.10
2017-11-19T09:59:07.490Z,7.20
2017-11-19T10:01:39.387Z,7.30
2017-11-19T10:04:11.254Z,7.30
2017-11-19T10:06:43.162Z,7.50
2017-11-19T10:09:15.029Z,7.60
2017-11-19T10:11:47.679Z,8.00
2017-11-19T10:14:19.543Z,8.00
2017-11-19T10:16:51.462Z,8.10
2017-11-19T10:19:23.321Z,8.20
2017-11-19T10:21:55.221Z,8.30
2017-11-19T10:24:27.097Z,8.20
2017-11-19T10:26:58.996Z,8.30
2017-11-19T10:29:30.868Z,8.20
2017-11-19T10:32:02.774Z,8.20
2017-11-19T10:34:34.656Z,8.30
2017-11-19T10:37:07.331Z,8.50
2017-11-19T10:39:39.978Z,8.60
2017-11-19T10:42:11.872Z,8.50
2017-11-19T10:44:44.505Z,8.40
2017-11-19T10:47:16.631Z,8.40
2017-11-19T10:49:48.502Z,8.20
2017-11-19T10:52:20.409Z,8.00
2017-11-19T10:54:52.277Z,7.90
2017-11-19T10:57:24.202Z,7.90
2017-11-19T10:59:56.070Z,7.80
2017-11-19T11:02:27.950Z,7.80
2017-11-19T11:04:59.853Z,7.80
2017-11-19T11:07:32.492Z,7.80
2017-11-19T11:10:04.377Z,7.80
2017-11-19T11:12:37.029Z,7.90
2017-11-19T11:15:08.901Z,7.90
2017-11-19T11:17:40.790Z,8.00
2017-11-19T11:20:12.656Z,8.20
2017-11-19T11:22:44.585Z,8.30
2017-11-19T11:25:16.454Z,8.40
2017-11-19T11:27:49.105Z,8.60
2017-11-19T11:30:20.986Z,8.60
2017-11-19T11:32:52.889Z,8.80
2017-11-19T11:35:24.757Z,9.00
2017-11-19T11:37:56.657Z,9.10
2017-11-19T11:40:28.521Z,9.10
2017-11-19T11:43:00.425Z,9.20
2017-11-19T11:45:32.304Z,9.30
2017-11-19T11:48:04.193Z,9.30
2017-11-19T11:53:15.306Z,9.30
2017-11-19T11:55:47.942Z,9.50
2017-11-19T11:58:20.598Z,9.60
2017-11-19T12:00:52.465Z,9.60
2017-11-19T12:03:24.344Z,9.70
2017-11-19T12:05:56.217Z,9.80
2017-11-19T12:08:28.115Z,9.80
2017-11-19T12:11:00.753Z,9.80
2017-11-19T12:13:32.658Z,9.80
2017-11-19T12:16:04.534Z,9.90
2017-11-19T12:18:36.421Z,9.80
2017-11-19T12:21:08.304Z,9.90
2017-11-19T12:23:40.210Z,10.00
2017-11-19T12:26:12.363Z,9.90
2017-11-19T12:28:44.258Z,9.90
2017-11-19T12:31:16.130Z,9.90
2017-11-19T12:33:48.052Z,9.90
2017-11-19T12:36:19.932Z,9.90
2017-11-19T12:38:51.837Z,10.00
2017-11-19T12:41:24.490Z,9.90
2017-11-19T12:43:56.420Z,9.90
2017-11-19T12:46:28.287Z,9.90
2017-11-19T12:49:00.181Z,9.80
2017-11-19T12:51:32.050Z,9.70
2017-11-19T12:54:03.957Z,9.60
2017-11-19T12:56:35.829Z,9.50
2017-11-19T12:59:07.748Z,9.50
2017-11-19T13:01:40.372Z,9.50
2017-11-19T13:04:12.262Z,9.50
2017-11-19T13:06:44.134Z,9.60
2017-11-19T13:09:16.042Z,9.60
2017-11-19T13:11:47.916Z,9.50
2017-11-19T13:14:19.829Z,9.40
2017-11-19T13:16:52.458Z,9.10
2017-11-19T13:19:24.374Z,9.10
2017-11-19T13:21:56.249Z,9.00
2017-11-19T13:24:28.187Z,8.90
2017-11-19T13:27:00.834Z,8.80
2017-11-19T13:29:32.733Z,8.80
2017-11-19T13:32:05.378Z,8.90
2017-11-19T13:34:37.280Z,8.90
2017-11-19T13:37:09.151Z,8.90
2017-11-19T13:39:41.055Z,8.90
2017-11-19T13:42:12.921Z,9.00
2017-11-19T13:44:44.830Z,9.00
2017-11-19T13:47:16.715Z,9.00
2017-11-19T13:49:48.624Z,8.90
2017-11-19T13:52:21.302Z,8.90
2017-11-19T13:54:53.183Z,8.80
2017-11-19T13:57:25.058Z,8.80
2017-11-19T13:59:56.953Z,8.80
2017-11-19T14:02:28.846Z,8.80
2017-11-19T14:05:00.731Z,8.80
2017-11-19T14:07:32.608Z,8.70
2017-11-19T14:10:04.553Z,8.60
2017-11-19T14:12:36.436Z,8.60
2017-11-19T14:15:08.336Z,8.60
2017-11-19T14:17:40.198Z,8.60
2017-11-19T14:20:12.174Z,8.60
2017-11-19T14:22:44.814Z,8.70
2017-11-19T14:25:17.544Z,8.60
2017-11-19T14:27:49.409Z,8.60
2017-11-19T14:30:21.325Z,8.50
2017-11-19T14:32:53.221Z,8.50
2017-11-19T14:35:25.175Z,8.40
2017-11-19T14:37:58.070Z,8.20
2017-11-19T14:40:30.004Z,8.20
2017-11-19T14:43:01.934Z,8.10
2017-11-19T14:45:33.865Z,8.00
2017-11-19T14:48:09.404Z,8.00
2017-11-19T14:50:41.336Z,8.00
2017-11-19T14:53:13.277Z,8.00
2017-11-19T14:55:45.284Z,8.00
2017-11-19T14:58:17.173Z,8.10
2017-11-19T15:00:51.505Z,8.00
2017-11-19T15:03:23.401Z,7.90
2017-11-19T15:05:56.069Z,7.80
2017-11-19T15:08:27.955Z,7.80
2017-11-19T15:11:00.621Z,7.80
2017-11-19T15:13:33.270Z,7.80
2017-11-19T15:16:05.187Z,7.80
2017-11-19T15:18:37.066Z,7.80
2017-11-19T15:21:08.954Z,7.80
2017-11-19T15:23:40.826Z,7.90
2017-11-19T15:26:12.734Z,7.90
2017-11-19T15:28:44.605Z,7.90
2017-11-19T15:31:16.492Z,7.90
2017-11-19T15:33:48.605Z,7.90
2017-11-19T15:36:20.530Z,7.90
2017-11-19T15:38:52.406Z,7.90
2017-11-19T15:41:25.095Z,7.80
2017-11-19T15:43:57.989Z,7.80
2017-11-19T15:46:30.245Z,7.80
2017-11-19T15:49:02.890Z,7.80
2017-11-19T15:51:34.817Z,7.80
2017-11-19T15:54:07.100Z,7.80
2017-11-19T15:56:38.977Z,7.80
2017-11-19T15:59:10.855Z,7.80
2017-11-19T16:01:42.759Z,7.90
2017-11-19T16:04:14.634Z,7.90
2017-11-19T16:06:46.542Z,7.90
2017-11-19T16:09:18.422Z,7.80
2017-11-19T16:11:51.138Z,7.70
2017-11-19T16:14:23.002Z,7.70
2017-11-19T16:16:54.913Z,7.70
2017-11-19T16:19:27.544Z,7.50
2017-11-19T16:21:59.647Z,7.60
2017-11-19T16:24:32.296Z,7.50
2017-11-19T16:27:04.195Z,7.40
2017-11-19T16:29:36.846Z,7.40
2017-11-19T16:32:08.775Z,7.40
2017-11-19T16:34:40.641Z,7.30
2017-11-19T16:37:12.542Z,7.30
2017-11-19T16:39:44.424Z,7.20
2017-11-19T16:42:17.093Z,7.10
2017-11-19T16:44:49.730Z,7.10
2017-11-19T16:47:21.756Z,7.00
2017-11-19T16:49:53.626Z,7.00
2017-11-19T16:52:26.570Z,7.00
2017-11-19T16:54:58.460Z,7.10
2017-11-19T16:57:30.357Z,7.10
2017-11-19T17:00:02.933Z,7.20
2017-11-19T17:02:34.850Z,7.20
2017-11-19T17:05:07.481Z,7.20
2017-11-19T17:07:39.447Z,7.20
2017-11-19T17:10:11.321Z,7.20
2017-11-19T17:12:43.262Z,7.20
2017-11-19T17:15:15.141Z,7.20
2017-11-19T17:17:47.045Z,7.20
2017-11-19T17:20:18.917Z,7.10
2017-11-19T17:22:50.813Z,7.00
2017-11-19T17:25:22.704Z,7.00
2017-11-19T17:27:55.345Z,7.00
2017-11-19T17:30:27.229Z,7.00
2017-11-19T17:32:59.128Z,7.00
2017-11-19T17:35:31.011Z,7.00
2017-11-19T17:38:02.971Z,6.90
2017-11-19T17:40:34.821Z,7.00
2017-11-19T17:43:06.728Z,7.00
2017-11-19T17:45:38.602Z,7.00
2017-11-19T17:48:11.270Z,7.00
2017-11-19T17:50:43.138Z,7.00
2017-11-19T17:53:15.814Z,6.80
2017-11-19T17:55:48.466Z,6.80
2017-11-19T17:58:20.363Z,6.80
2017-11-19T18:00:52.997Z,6.80
2017-11-19T18:03:24.913Z,6.70
2017-11-19T18:05:56.793Z,6.80
2017-11-19T18:08:28.687Z,6.80
2017-11-19T18:11:00.563Z,6.80
2017-11-19T18:13:33.224Z,6.90
2017-11-19T18:16:05.098Z,6.90
2017-11-19T18:18:37.009Z,7.00
2017-11-19T18:21:08.889Z,7.00
2017-11-19T18:23:40.789Z,7.00
2017-11-19T18:26:13.430Z,7.00
2017-11-19T18:28:45.328Z,7.00
2017-11-19T18:31:18.236Z,6.90
2017-11-19T18:33:50.133Z,6.90
2017-11-19T18:36:22.009Z,6.90
2017-11-19T18:38:53.906Z,6.90
2017-11-19T18:41:26.581Z,6.80
2017-11-19T18:43:59.477Z,6.80
2017-11-19T18:46:31.340Z,6.80
2017-11-19T18:49:03.233Z,6.70
2017-11-19T18:51:35.101Z,6.70
2017-11-19T18:54:06.995Z,6.60
2017-11-19T18:56:39.635Z,6.60
2017-11-19T18:59:11.528Z,6.60
2017-11-19T19:01:43.409Z,6.60
2017-11-19T19:04:16.069Z,6.50
2017-11-19T19:06:48.718Z,6.50
2017-11-19T19:09:20.636Z,6.50
2017-11-19T19:11:52.496Z,6.50
2017-11-19T19:14:24.420Z,6.50
2017-11-19T19:16:56.298Z,6.40
2017-11-19T19:19:28.966Z,6.40
2017-11-19T19:22:00.837Z,6.40
2017-11-19T19:24:33.509Z,6.40
2017-11-19T19:27:06.137Z,6.40
2017-11-19T19:29:38.021Z,6.40
2017-11-19T19:32:09.899Z,6.40
2017-11-19T19:34:42.460Z,6.50
2017-11-19T19:37:14.337Z,6.50
2017-11-19T19:39:46.220Z,6.40
2017-11-19T19:42:18.101Z,6.40
2017-11-19T19:44:50.009Z,6.40
2017-11-19T19:47:21.881Z,6.40
2017-11-19T19:49:54.544Z,6.50
2017-11-19T19:52:26.422Z,6.50
2017-11-19T19:54:59.088Z,6.50
2017-11-19T19:57:30.966Z,6.50
2017-11-19T20:00:03.635Z,6.60
2017-11-19T20:02:35.501Z,6.60
2017-11-19T20:05:08.167Z,6.70
2017-11-19T20:07:40.045Z,6.70
2017-11-19T20:10:12.709Z,6.70
2017-11-19T20:12:44.581Z,6.70
2017-11-19T20:15:17.245Z,6.70
